createdAt,value
2022-09-01T00:00:09.142Z,98404.03
2022-09-01T00:02:56.782Z,98395.94
2022-09-01T00:05:24.287Z,98388.31
2022-09-01T00:07:51.509Z,98392.75
2022-09-01T00:10:18.759Z,98387.72
2022-09-01T00:12:46.274Z,98391.84
2022-09-01T00:15:14.805Z,98386.34
2022-09-01T00:17:42.246Z,98378.31
2022-09-01T00:20:13.433Z,98388.19
2022-09-01T00:22:42.113Z,98387.38
2022-09-01T00:25:09.875Z,98390.00
2022-09-01T00:27:37.256Z,98393.47
2022-09-01T00:30:05.949Z,98388.19
2022-09-01T00:32:33.231Z,98389.16
2022-09-01T00:35:00.923Z,98386.94
2022-09-01T00:37:28.304Z,98386.50
2022-09-01T00:39:55.520Z,98388.69
2022-09-01T00:42:23.896Z,98385.09
2022-09-01T00:44:51.116Z,98383.66
2022-09-01T00:47:19.387Z,98377.44
2022-09-01T00:49:50.925Z,98385.34
2022-09-01T00:52:28.185Z,98375.03
2022-09-01T00:55:02.591Z,98378.94
2022-09-01T00:57:30.138Z,98367.69
2022-09-01T01:00:06.981Z,98377.53
2022-09-01T01:02:34.363Z,98370.59
2022-09-01T01:05:03.404Z,98370.47
2022-09-01T01:07:31.172Z,98377.09
2022-09-01T01:09:58.436Z,98369.19
2022-09-01T01:12:30.919Z,98368.00
2022-09-01T01:14:58.160Z,98375.44
2022-09-01T01:17:25.758Z,98366.81
2022-09-01T01:20:15.298Z,98370.19
2022-09-01T01:23:16.098Z,98364.91
2022-09-01T01:25:57.550Z,98370.44
2022-09-01T01:28:32.246Z,98378.00
2022-09-01T01:31:14.100Z,98370.63
2022-09-01T01:33:54.678Z,98375.03
2022-09-01T01:36:35.962Z,98373.16
2022-09-01T01:39:16.512Z,98378.19
2022-09-01T01:41:48.991Z,98380.13
2022-09-01T01:44:28.053Z,98382.16
2022-09-01T01:46:57.503Z,98378.56
2022-09-01T01:49:29.230Z,98380.63
2022-09-01T01:51:58.175Z,98378.84
2022-09-01T01:54:31.434Z,98380.75
2022-09-01T01:57:00.848Z,98386.25
2022-09-01T01:59:30.054Z,98372.03
2022-09-01T02:01:58.348Z,98377.53
2022-09-01T02:04:26.339Z,98373.00
2022-09-01T02:06:53.618Z,98373.00
2022-09-01T02:09:23.399Z,98375.50
2022-09-01T02:11:55.542Z,98371.69
2022-09-01T02:14:23.422Z,98373.50
2022-09-01T02:16:50.891Z,98372.06
2022-09-01T02:19:21.262Z,98367.06
2022-09-01T02:21:54.296Z,98369.56
2022-09-01T02:24:32.141Z,98367.28
2022-09-01T02:27:00.612Z,98367.97
2022-09-01T02:29:28.881Z,98365.97
2022-09-01T02:31:57.854Z,98365.84
2022-09-01T02:34:27.737Z,98367.91
2022-09-01T02:36:57.780Z,98361.53
2022-09-01T02:39:30.307Z,98370.59
2022-09-01T02:41:58.634Z,98369.19
2022-09-01T02:44:27.924Z,98366.81
2022-09-01T02:46:56.105Z,98372.06
2022-09-01T02:49:28.366Z,98372.31
2022-09-01T02:51:59.683Z,98370.41
2022-09-01T02:54:30.969Z,98363.72
2022-09-01T02:56:58.739Z,98360.72
2022-09-01T02:59:30.542Z,98362.06
2022-09-01T03:01:58.060Z,98352.03
2022-09-01T03:04:44.119Z,98353.34
2022-09-01T03:07:13.988Z,98355.16
2022-09-01T03:09:43.017Z,98354.66
2022-09-01T03:12:10.693Z,98351.56
2022-09-01T03:14:38.152Z,98351.34
2022-09-01T03:17:05.465Z,98355.97
2022-09-01T03:19:42.016Z,98356.81
2022-09-01T03:22:10.103Z,98358.97
2022-09-01T03:24:37.350Z,98364.50
2022-09-01T03:27:04.834Z,98360.06
2022-09-01T03:29:32.291Z,98364.72
2022-09-01T03:31:59.533Z,98360.75
2022-09-01T03:34:27.220Z,98369.22
2022-09-01T03:36:55.974Z,98368.66
2022-09-01T03:39:23.184Z,98367.56
2022-09-01T03:41:50.405Z,98372.81
2022-09-01T03:44:17.969Z,98371.75
2022-09-01T03:46:45.468Z,98374.63
2022-09-01T03:49:25.038Z,98364.50
2022-09-01T03:51:56.529Z,98373.09
2022-09-01T03:54:27.959Z,98365.44
2022-09-01T03:56:55.412Z,98376.09
2022-09-01T03:59:25.586Z,98372.16
2022-09-01T04:01:53.275Z,98374.66
2022-09-01T04:04:21.008Z,98375.00
2022-09-01T04:06:49.236Z,98378.72
2022-09-01T04:09:16.430Z,98382.19
2022-09-01T04:11:47.036Z,98378.59
2022-09-01T04:14:15.704Z,98384.44
2022-09-01T04:17:03.670Z,98382.75
2022-09-01T04:19:39.524Z,98383.94
2022-09-01T04:22:08.192Z,98386.19
2022-09-01T04:24:35.854Z,98391.31
2022-09-01T04:27:04.457Z,98380.16
2022-09-01T04:29:32.932Z,98389.63
2022-09-01T04:32:13.201Z,98404.88
2022-09-01T04:34:41.800Z,98390.00
2022-09-01T04:37:21.427Z,98391.03
2022-09-01T04:39:56.849Z,98396.50
2022-09-01T04:42:29.534Z,98396.25
2022-09-01T04:44:58.285Z,98396.81
2022-09-01T04:47:35.604Z,98401.75
2022-09-01T04:50:14.349Z,98396.91
2022-09-01T04:52:47.860Z,98403.34
2022-09-01T04:55:18.766Z,98393.97
2022-09-01T04:57:49.627Z,98396.47
2022-09-01T05:00:24.441Z,98397.91
2022-09-01T05:03:04.684Z,98391.00
2022-09-01T05:05:45.110Z,98389.66
2022-09-01T05:08:24.035Z,98396.22
2022-09-01T05:10:56.890Z,98391.38
2022-09-01T05:13:27.372Z,98388.72
2022-09-01T05:16:13.072Z,98394.19
2022-09-01T05:18:45.664Z,98390.47
2022-09-01T05:21:14.924Z,98392.84
2022-09-01T05:23:47.110Z,98388.28
2022-09-01T05:26:19.788Z,98391.38
2022-09-01T05:29:00.654Z,98387.97
2022-09-01T05:31:35.072Z,98387.97
2022-09-01T05:34:03.476Z,98396.03
2022-09-01T05:36:33.642Z,98391.03
2022-09-01T05:39:02.187Z,98389.66
2022-09-01T05:41:29.700Z,98390.50
2022-09-01T05:44:00.608Z,98386.47
2022-09-01T05:46:28.736Z,98387.59
2022-09-01T05:48:57.654Z,98390.47
2022-09-01T05:51:46.488Z,98389.09
2022-09-01T05:54:23.344Z,98393.13
2022-09-01T05:56:50.871Z,98398.81
2022-09-01T05:59:25.242Z,98388.66
2022-09-01T06:01:55.040Z,98392.28
2022-09-01T06:04:25.710Z,98396.88
2022-09-01T06:07:05.626Z,98392.16
2022-09-01T06:09:41.704Z,98397.03
2022-09-01T06:12:18.148Z,98399.66
2022-09-01T06:14:48.707Z,98395.50
2022-09-01T06:17:25.131Z,98393.09
2022-09-01T06:19:58.660Z,98405.22
2022-09-01T06:22:28.656Z,98401.53
2022-09-01T06:25:01.862Z,98402.06
2022-09-01T06:27:30.329Z,98407.03
2022-09-01T06:29:58.358Z,98402.72
2022-09-01T06:32:27.288Z,98405.22
2022-09-01T06:34:56.406Z,98407.13
2022-09-01T06:37:23.846Z,98410.16
2022-09-01T06:39:51.287Z,98404.78
2022-09-01T06:42:19.644Z,98416.53
2022-09-01T06:44:47.435Z,98422.81
2022-09-01T06:47:15.717Z,98420.59
2022-09-01T06:49:43.731Z,98424.09
2022-09-01T06:52:13.961Z,98427.41
2022-09-01T06:54:43.996Z,98429.81
2022-09-01T06:59:58.741Z,98438.19
2022-09-01T07:02:27.179Z,98433.03
2022-09-01T07:08:09.441Z,98440.50
2022-09-01T07:14:14.516Z,98461.06
2022-09-01T07:16:32.493Z,98462.06
2022-09-01T07:19:02.699Z,98462.66
2022-09-01T07:21:41.942Z,98466.94
2022-09-01T07:24:20.525Z,98460.56
2022-09-01T07:26:50.853Z,98457.13
2022-09-01T07:29:20.094Z,98462.16
2022-09-01T07:31:52.043Z,98462.72
2022-09-01T07:34:39.513Z,98460.97
2022-09-01T07:39:56.486Z,98459.41
2022-09-01T07:45:28.821Z,98464.72
2022-09-01T07:48:03.417Z,98470.06
2022-09-01T07:53:31.593Z,98485.84
2022-09-01T07:56:07.163Z,98482.19
2022-09-01T07:58:35.440Z,98482.84
2022-09-01T08:01:07.501Z,98476.41
2022-09-01T08:03:35.955Z,98477.53
2022-09-01T08:06:10.795Z,98489.03
2022-09-01T08:08:40.157Z,98499.16
2022-09-01T08:11:08.813Z,98484.03
2022-09-01T08:13:41.733Z,98487.38
2022-09-01T08:16:18.941Z,98482.88
2022-09-01T08:18:49.125Z,98478.59
2022-09-01T08:21:22.203Z,98482.94
2022-09-01T08:23:53.543Z,98494.47
2022-09-01T08:26:25.842Z,98486.00
2022-09-01T08:28:55.367Z,98490.47
2022-09-01T08:31:24.951Z,98490.59
2022-09-01T08:33:52.730Z,98480.31
2022-09-01T08:36:23.994Z,98470.91
2022-09-01T08:38:53.403Z,98472.34
2022-09-01T08:41:53.220Z,98463.91
2022-09-01T08:44:49.954Z,98466.16
2022-09-01T08:47:28.816Z,98470.16
2022-09-01T08:50:00.677Z,98464.22
2022-09-01T08:52:41.361Z,98466.66
2022-09-01T08:55:38.594Z,98474.31
2022-09-01T08:58:07.849Z,98477.09
2022-09-01T09:00:45.967Z,98487.31
2022-09-01T09:04:04.300Z,98500.69
2022-09-01T09:06:53.761Z,98485.22
2022-09-01T09:09:32.396Z,98490.75
2022-09-01T09:12:51.436Z,98488.13
2022-09-01T09:16:25.844Z,98492.56
2022-09-01T09:19:02.392Z,98492.59
2022-09-01T09:21:41.406Z,98498.34
2022-09-01T09:24:22.425Z,98484.78
2022-09-01T09:26:53.177Z,98476.91
2022-09-01T09:29:23.191Z,98479.69
2022-09-01T09:32:22.480Z,98482.78
2022-09-01T09:34:51.138Z,98476.94
2022-09-01T09:37:29.259Z,98479.47
2022-09-01T09:40:10.984Z,98477.97
2022-09-01T09:43:04.022Z,98478.78
2022-09-01T09:45:42.937Z,98474.25
2022-09-01T09:48:30.017Z,98474.66
2022-09-01T09:51:28.931Z,98448.94
2022-09-01T09:54:26.250Z,98461.53
2022-09-01T09:57:08.950Z,98466.31
2022-09-01T09:59:57.790Z,98435.66
2022-09-01T10:02:44.082Z,98457.25
2022-09-01T10:05:30.153Z,98430.09
2022-09-01T10:07:58.569Z,98447.09
2022-09-01T10:10:58.395Z,98415.47
2022-09-01T10:13:32.579Z,98398.78
2022-09-01T10:16:11.258Z,98402.09
2022-09-01T10:18:44.934Z,98431.41
2022-09-01T10:21:42.974Z,98394.63
2022-09-01T10:24:38.827Z,98373.59
2022-09-01T10:27:19.008Z,98392.56
2022-09-01T10:30:12.410Z,98422.56
2022-09-01T10:33:07.458Z,98397.91
2022-09-01T10:35:45.632Z,98378.59
2022-09-01T10:38:28.205Z,98379.78
2022-09-01T10:41:10.115Z,98370.56
2022-09-01T10:43:45.803Z,98371.53
2022-09-01T10:46:27.615Z,98376.41
2022-09-01T10:49:33.328Z,98371.41
2022-09-01T10:52:11.338Z,98386.41
2022-09-01T10:54:51.347Z,98390.41
2022-09-01T10:57:19.039Z,98411.69
2022-09-01T10:59:56.118Z,98396.22
2022-09-01T11:02:34.552Z,98382.09
2022-09-01T11:05:02.419Z,98367.53
2022-09-01T11:07:58.151Z,98367.78
2022-09-01T11:10:43.591Z,98365.31
2022-09-01T11:13:51.181Z,98371.19
2022-09-01T11:16:49.517Z,98365.91
2022-09-01T11:19:57.228Z,98365.09
2022-09-01T11:22:37.902Z,98375.09
2022-09-01T11:25:41.419Z,98388.06
2022-09-01T11:28:23.984Z,98393.56
2022-09-01T11:31:06.585Z,98385.53
2022-09-01T11:34:13.105Z,98377.75
2022-09-01T11:36:44.933Z,98363.19
2022-09-01T11:39:18.115Z,98359.66
2022-09-01T11:42:05.109Z,98353.38
2022-09-01T11:44:42.673Z,98348.91
2022-09-01T11:47:37.191Z,98357.91
2022-09-01T11:50:27.915Z,98357.44
2022-09-01T11:53:20.479Z,98365.59
2022-09-01T11:55:53.795Z,98356.97
2022-09-01T11:58:31.257Z,98359.56
2022-09-01T12:01:38.795Z,98359.22
2022-09-01T12:04:27.750Z,98347.84
2022-09-01T12:07:45.148Z,98350.63
2022-09-01T12:10:35.482Z,98356.22
2022-09-01T12:13:13.083Z,98361.72
2022-09-01T12:16:07.158Z,98360.94
2022-09-01T12:18:47.542Z,98351.19
2022-09-01T12:21:29.967Z,98344.28
2022-09-01T12:24:22.992Z,98357.97
2022-09-01T12:26:55.914Z,98352.06
2022-09-01T12:29:23.466Z,98346.59
2022-09-01T12:31:54.277Z,98344.09
2022-09-01T12:34:59.189Z,98345.31
2022-09-01T12:37:27.992Z,98345.69
2022-09-01T12:39:58.762Z,98340.59
2022-09-01T12:42:39.009Z,98341.38
2022-09-01T12:45:13.334Z,98336.88
2022-09-01T12:47:48.006Z,98341.97
2022-09-01T12:50:16.741Z,98339.22
2022-09-01T12:52:48.661Z,98340.13
2022-09-01T12:58:13.121Z,98348.97
2022-09-01T13:01:16.229Z,98342.63
2022-09-01T13:04:12.060Z,98336.44
2022-09-01T13:06:39.555Z,98340.81
2022-09-01T13:09:07.333Z,98343.34
2022-09-01T13:14:25.273Z,98344.47
2022-09-01T13:16:52.689Z,98335.16
2022-09-01T13:19:27.473Z,98333.91
2022-09-01T13:21:56.398Z,98340.38
2022-09-01T13:24:28.571Z,98349.09
2022-09-01T13:29:46.683Z,98349.19
2022-09-01T13:32:19.315Z,98349.72
2022-09-01T13:34:50.677Z,98346.47
2022-09-01T13:37:21.343Z,98349.97
2022-09-01T13:39:49.136Z,98355.13
2022-09-01T13:42:17.696Z,98361.56
2022-09-01T13:44:49.551Z,98361.31
2022-09-01T13:48:14.768Z,98349.72
2022-09-01T13:50:11.416Z,98353.72
2022-09-01T13:52:55.001Z,98346.31
2022-09-01T13:55:31.769Z,98346.38
2022-09-01T13:57:59.382Z,98350.66
2022-09-01T14:00:36.581Z,98357.84
2022-09-01T14:03:12.948Z,98355.44
2022-09-01T14:05:43.818Z,98344.56
2022-09-01T14:08:14.705Z,98346.38
2022-09-01T14:10:47.255Z,98343.69
2022-09-01T14:13:15.737Z,98347.03
2022-09-01T14:15:44.828Z,98350.28
2022-09-01T14:18:15.788Z,98343.47
2022-09-01T14:20:47.322Z,98351.38
2022-09-01T14:23:16.082Z,98347.13
2022-09-01T14:25:51.199Z,98352.63
2022-09-01T14:28:21.335Z,98344.94
2022-09-01T14:33:18.710Z,98341.69
2022-09-01T14:35:48.417Z,98342.69
2022-09-01T14:38:16.231Z,98344.31
2022-09-01T14:40:48.823Z,98335.84
2022-09-01T14:43:16.347Z,98334.00
2022-09-01T14:45:47.172Z,98332.97
2022-09-01T14:48:20.664Z,98327.81
2022-09-01T14:50:51.098Z,98322.31
2022-09-01T14:53:19.624Z,98326.91
2022-09-01T14:55:46.962Z,98328.38
2022-09-01T14:58:14.428Z,98327.06
2022-09-01T15:00:42.400Z,98324.13
2022-09-01T15:03:20.519Z,98327.38
2022-09-01T15:05:51.249Z,98327.47
2022-09-01T15:08:19.070Z,98320.19
2022-09-01T15:10:46.583Z,98335.88
2022-09-01T15:13:14.124Z,98333.41
2022-09-01T15:15:41.450Z,98338.25
2022-09-01T15:18:08.897Z,98336.63
2022-09-01T15:20:47.272Z,98342.06
2022-09-01T15:23:20.933Z,98343.84
2022-09-01T15:25:52.087Z,98348.16
2022-09-01T15:28:20.056Z,98349.53
2022-09-01T15:30:47.612Z,98345.94
2022-09-01T15:33:16.134Z,98341.41
2022-09-01T15:35:46.014Z,98349.19
2022-09-01T15:38:19.631Z,98341.22
2022-09-01T15:40:55.486Z,98343.63
2022-09-01T15:43:26.508Z,98341.44
2022-09-01T15:45:54.234Z,98339.28
2022-09-01T15:48:21.614Z,98337.69
2022-09-01T15:50:49.617Z,98343.03
2022-09-01T15:53:17.240Z,98344.06
2022-09-01T15:55:48.525Z,98343.22
2022-09-01T15:58:18.416Z,98342.78
2022-09-01T16:00:46.520Z,98346.50
2022-09-01T16:03:13.881Z,98344.44
2022-09-01T16:05:41.788Z,98351.00
2022-09-01T16:08:11.650Z,98352.19
2022-09-01T16:10:42.349Z,98356.44
2022-09-01T16:13:11.283Z,98354.84
2022-09-01T16:16:40.890Z,98355.09
2022-09-01T16:19:32.691Z,98356.75
2022-09-01T16:22:16.570Z,98354.50
2022-09-01T16:24:54.320Z,98360.78
2022-09-01T16:27:33.120Z,98366.59
2022-09-01T16:30:08.834Z,98362.53
2022-09-01T16:32:45.753Z,98358.13
2022-09-01T16:35:14.844Z,98367.19
2022-09-01T16:37:53.253Z,98360.28
2022-09-01T16:41:21.138Z,98375.22
2022-09-01T16:44:13.730Z,98377.06
2022-09-01T16:47:25.688Z,98370.31
2022-09-01T16:50:31.504Z,98374.44
2022-09-01T16:53:02.563Z,98370.50
2022-09-01T16:56:09.386Z,98371.53
2022-09-01T16:58:46.422Z,98374.38
2022-09-01T17:01:59.749Z,98378.03
2022-09-01T17:04:46.901Z,98382.69
2022-09-01T17:07:45.118Z,98383.47
2022-09-01T17:10:29.208Z,98388.94
2022-09-01T17:12:58.493Z,98386.91
2022-09-01T17:15:40.848Z,98391.50
2022-09-01T17:18:29.397Z,98387.50
2022-09-01T17:21:20.916Z,98389.78
2022-09-01T17:24:15.962Z,98393.09
2022-09-01T17:26:47.887Z,98392.38
2022-09-01T17:29:24.800Z,98395.63
2022-09-01T17:32:27.283Z,98397.88
2022-09-01T17:35:15.870Z,98400.13
2022-09-01T17:37:57.122Z,98403.56
2022-09-01T17:40:50.258Z,98401.34
2022-09-01T17:43:49.702Z,98405.03
2022-09-01T17:46:41.869Z,98405.69
2022-09-01T17:49:50.848Z,98405.78
2022-09-01T17:53:10.356Z,98415.97
2022-09-01T17:56:09.420Z,98420.34
2022-09-01T17:59:24.183Z,98416.19
2022-09-01T18:02:20.200Z,98428.78
2022-09-01T18:05:06.599Z,98422.69
2022-09-01T18:07:46.637Z,98428.56
2022-09-01T18:10:21.080Z,98434.28
2022-09-01T18:13:00.710Z,98436.72
2022-09-01T18:15:40.902Z,98438.16
2022-09-01T18:18:27.071Z,98438.03
2022-09-01T18:21:48.803Z,98442.94
2022-09-01T18:24:22.154Z,98448.78
2022-09-01T18:26:51.429Z,98448.38
2022-09-01T18:29:20.249Z,98452.13
2022-09-01T18:32:12.151Z,98449.09
2022-09-01T18:34:59.111Z,98449.41
2022-09-01T18:38:21.810Z,98454.69
2022-09-01T18:41:08.321Z,98458.41
2022-09-01T18:43:50.697Z,98452.19
2022-09-01T18:46:31.257Z,98455.09
2022-09-01T18:49:21.533Z,98462.47
2022-09-01T18:52:41.566Z,98455.25
2022-09-01T18:55:24.705Z,98458.84
2022-09-01T18:57:56.797Z,98459.00
2022-09-01T19:00:43.701Z,98455.41
2022-09-01T19:03:29.979Z,98450.34
2022-09-01T19:06:14.305Z,98454.13
2022-09-01T19:09:03.278Z,98462.47
2022-09-01T19:12:03.331Z,98448.97
2022-09-01T19:15:12.276Z,98458.44
2022-09-01T19:17:45.448Z,98459.25
2022-09-01T19:20:28.759Z,98462.19
2022-09-01T19:23:13.729Z,98462.31
2022-09-01T19:25:42.880Z,98460.50
2022-09-01T19:28:31.815Z,98460.63
2022-09-01T19:31:24.038Z,98462.56
2022-09-01T19:34:00.207Z,98462.56
2022-09-01T19:36:36.510Z,98459.91
2022-09-01T19:39:08.256Z,98465.03
2022-09-01T19:41:48.464Z,98471.16
2022-09-01T19:44:51.050Z,98467.66
2022-09-01T19:47:37.401Z,98463.91
2022-09-01T19:50:24.110Z,98465.69
2022-09-01T19:53:00.787Z,98458.06
2022-09-01T19:55:43.385Z,98467.22
2022-09-01T19:58:25.171Z,98474.00
2022-09-01T20:01:03.387Z,98472.59
2022-09-01T20:04:04.443Z,98476.56
2022-09-01T20:06:36.605Z,98468.91
2022-09-01T20:09:59.453Z,98479.03
2022-09-01T20:13:03.005Z,98479.41
2022-09-01T20:15:54.064Z,98481.88
2022-09-01T20:18:36.514Z,98477.16
2022-09-01T20:21:18.776Z,98479.34
2022-09-01T20:24:07.285Z,98476.69
2022-09-01T20:27:14.871Z,98471.00
2022-09-01T20:29:56.889Z,98470.72
2022-09-01T20:32:51.781Z,98480.91
2022-09-01T20:35:42.019Z,98473.56
2022-09-01T20:38:42.591Z,98479.50
2022-09-01T20:41:26.021Z,98479.69
2022-09-01T20:43:57.148Z,98476.09
2022-09-01T20:46:26.562Z,98479.69
2022-09-01T20:48:53.998Z,98482.59
2022-09-01T20:51:30.055Z,98475.47
2022-09-01T20:54:27.612Z,98476.22
2022-09-01T20:57:25.943Z,98474.09
2022-09-01T21:00:07.085Z,98477.06
2022-09-01T21:03:06.104Z,98476.97
2022-09-01T21:06:07.221Z,98481.41
2022-09-01T21:08:57.313Z,98477.94
2022-09-01T21:11:38.147Z,98489.81
2022-09-01T21:14:19.665Z,98497.25
2022-09-01T21:17:23.271Z,98497.16
2022-09-01T21:20:17.862Z,98496.81
2022-09-01T21:22:45.210Z,98491.50
2022-09-01T21:25:12.627Z,98496.81
2022-09-01T21:27:54.705Z,98495.38
2022-09-01T21:30:24.233Z,98496.69
2022-09-01T21:32:56.855Z,98496.34
2022-09-01T21:35:24.672Z,98489.41
2022-09-01T21:37:53.124Z,98495.72
2022-09-01T21:40:23.740Z,98493.34
2022-09-01T21:43:06.957Z,98495.66
2022-09-01T21:45:38.084Z,98495.16
2022-09-01T21:48:06.621Z,98499.34
2022-09-01T21:50:34.453Z,98498.03
2022-09-01T21:53:01.968Z,98500.88
2022-09-01T21:55:30.084Z,98500.41
2022-09-01T21:57:57.746Z,98508.59
2022-09-01T22:00:30.011Z,98502.13
2022-09-01T22:02:59.532Z,98501.66
2022-09-01T22:05:27.216Z,98495.22
2022-09-01T22:07:56.640Z,98498.56
2022-09-01T22:10:28.176Z,98499.53
2022-09-01T22:12:56.362Z,98500.00
2022-09-01T22:15:25.855Z,98512.44
2022-09-01T22:17:56.265Z,98513.41
2022-09-01T22:20:26.167Z,98514.13
2022-09-01T22:22:56.788Z,98510.53
2022-09-01T22:25:24.187Z,98505.16
2022-09-01T22:27:51.703Z,98503.13
2022-09-01T22:30:19.418Z,98495.25
2022-09-01T22:32:48.063Z,98505.16
2022-09-01T22:35:18.401Z,98508.75
2022-09-01T22:37:46.714Z,98511.50
2022-09-01T22:40:15.712Z,98514.00
2022-09-01T22:42:43.830Z,98501.97
2022-09-01T22:45:14.385Z,98506.59
2022-09-01T22:47:41.958Z,98510.69
2022-09-01T22:50:11.189Z,98504.81
2022-09-01T22:52:39.821Z,98505.31
2022-09-01T22:55:09.789Z,98509.81
2022-09-01T22:57:37.781Z,98507.06
2022-09-01T23:00:09.864Z,98513.28
2022-09-01T23:02:37.821Z,98507.19
2022-09-01T23:05:06.939Z,98500.72
2022-09-01T23:07:39.579Z,98501.81
2022-09-01T23:10:09.497Z,98503.88
2022-09-01T23:12:36.885Z,98501.44
2022-09-01T23:15:05.666Z,98498.81
2022-09-01T23:17:33.225Z,98495.13
2022-09-01T23:20:01.130Z,98497.75
2022-09-01T23:22:28.719Z,98500.94
2022-09-01T23:24:56.271Z,98498.78
2022-09-01T23:27:23.537Z,98498.09
2022-09-01T23:29:51.385Z,98504.03
2022-09-01T23:32:18.733Z,98504.50
2022-09-01T23:34:46.147Z,98505.25
2022-09-01T23:37:13.403Z,98498.06
2022-09-01T23:39:40.862Z,98498.28
2022-09-01T23:42:08.159Z,98498.06
2022-09-01T23:44:37.026Z,98497.81
2022-09-01T23:47:04.783Z,98499.00
2022-09-01T23:49:32.245Z,98494.56
2022-09-01T23:51:59.671Z,98491.59
2022-09-01T23:54:27.184Z,98494.44
2022-09-01T23:56:54.540Z,98487.75
2022-09-01T23:59:27.471Z,98492.88
